sensor_id;sensor_type;location;lat;lon;timestamp;P1;durP1;ratioP1;P2;durP2;ratioP2
75417;SDS011;63997;52.112;5.420;2024-02-14T00:00:07;3.40;;;2.70;;
75417;SDS011;63997;52.112;5.420;2024-02-14T00:02:40;2.95;;;2.63;;
75417;SDS011;63997;52.112;5.420;2024-02-14T00:05:07;4.30;;;2.50;;
75417;SDS011;63997;52.112;5.420;2024-02-14T00:07:36;5.88;;;2.97;;
75417;SDS011;63997;52.112;5.420;2024-02-14T00:10:03;3.25;;;2.53;;
75417;SDS011;63997;52.112;5.420;2024-02-14T00:12:35;3.17;;;2.37;;
75417;SDS011;63997;52.112;5.420;2024-02-14T00:15:03;3.03;;;2.67;;
75417;SDS011;63997;52.112;5.420;2024-02-14T00:17:32;3.05;;;2.67;;
75417;SDS011;63997;52.112;5.420;2024-02-14T00:20:02;3.45;;;2.88;;
75417;SDS011;63997;52.112;5.420;2024-02-14T00:22:30;3.70;;;2.75;;
75417;SDS011;63997;52.112;5.420;2024-02-14T00:24:57;2.80;;;2.50;;
75417;SDS011;63997;52.112;5.420;2024-02-14T00:27:24;4.35;;;2.85;;
75417;SDS011;63997;52.112;5.420;2024-02-14T00:29:52;6.68;;;3.22;;
75417;SDS011;63997;52.112;5.420;2024-02-14T00:32:20;3.55;;;3.20;;
75417;SDS011;63997;52.112;5.420;2024-02-14T00:34:47;3.17;;;2.88;;
75417;SDS011;63997;52.112;5.420;2024-02-14T00:37:13;3.77;;;3.10;;
75417;SDS011;63997;52.112;5.420;2024-02-14T00:39:40;4.20;;;3.80;;
75417;SDS011;63997;52.112;5.420;2024-02-14T00:42:07;5.00;;;3.42;;
75417;SDS011;63997;52.112;5.420;2024-02-14T00:44:33;3.55;;;3.20;;
75417;SDS011;63997;52.112;5.420;2024-02-14T00:47:00;5.30;;;3.58;;
75417;SDS011;63997;52.112;5.420;2024-02-14T00:49:28;4.93;;;3.80;;
75417;SDS011;63997;52.112;5.420;2024-02-14T00:51:55;4.82;;;3.50;;
75417;SDS011;63997;52.112;5.420;2024-02-14T00:54:21;3.90;;;3.60;;
75417;SDS011;63997;52.112;5.420;2024-02-14T00:56:48;5.43;;;4.32;;
75417;SDS011;63997;52.112;5.420;2024-02-14T00:59:15;4.55;;;4.10;;
75417;SDS011;63997;52.112;5.420;2024-02-14T01:01:43;5.60;;;4.17;;
75417;SDS011;63997;52.112;5.420;2024-02-14T01:04:10;4.88;;;4.38;;
75417;SDS011;63997;52.112;5.420;2024-02-14T01:06:37;4.63;;;4.22;;
75417;SDS011;63997;52.112;5.420;2024-02-14T01:09:04;6.13;;;4.60;;
75417;SDS011;63997;52.112;5.420;2024-02-14T01:11:31;4.82;;;4.30;;
75417;SDS011;63997;52.112;5.420;2024-02-14T01:13:57;5.13;;;4.50;;
75417;SDS011;63997;52.112;5.420;2024-02-14T01:16:24;5.43;;;4.45;;
75417;SDS011;63997;52.112;5.420;2024-02-14T01:18:54;7.07;;;4.60;;
75417;SDS011;63997;52.112;5.420;2024-02-14T01:21:21;7.22;;;5.00;;
75417;SDS011;63997;52.112;5.420;2024-02-14T01:23:48;9.43;;;4.45;;
75417;SDS011;63997;52.112;5.420;2024-02-14T01:26:14;4.87;;;4.37;;
75417;SDS011;63997;52.112;5.420;2024-02-14T01:28:41;7.47;;;5.15;;
75417;SDS011;63997;52.112;5.420;2024-02-14T01:31:10;5.03;;;4.53;;
75417;SDS011;63997;52.112;5.420;2024-02-14T01:33:38;5.20;;;4.68;;
75417;SDS011;63997;52.112;5.420;2024-02-14T01:36:04;7.47;;;5.10;;
75417;SDS011;63997;52.112;5.420;2024-02-14T01:38:31;10.03;;;5.07;;
75417;SDS011;63997;52.112;5.420;2024-02-14T01:41:02;5.35;;;4.40;;
75417;SDS011;63997;52.112;5.420;2024-02-14T01:43:29;6.25;;;5.00;;
75417;SDS011;63997;52.112;5.420;2024-02-14T01:46:05;6.45;;;5.00;;
75417;SDS011;63997;52.112;5.420;2024-02-14T01:48:33;8.30;;;4.95;;
75417;SDS011;63997;52.112;5.420;2024-02-14T01:51:01;7.47;;;5.07;;
75417;SDS011;63997;52.112;5.420;2024-02-14T01:53:29;6.90;;;4.70;;
75417;SDS011;63997;52.112;5.420;2024-02-14T01:55:57;6.72;;;5.47;;
75417;SDS011;63997;52.112;5.420;2024-02-14T01:58:25;5.60;;;5.03;;
75417;SDS011;63997;52.112;5.420;2024-02-14T02:00:53;6.32;;;4.88;;
75417;SDS011;63997;52.112;5.420;2024-02-14T02:03:23;5.93;;;4.77;;
75417;SDS011;63997;52.112;5.420;2024-02-14T02:05:51;6.30;;;5.47;;
75417;SDS011;63997;52.112;5.420;2024-02-14T02:08:20;8.60;;;5.85;;
75417;SDS011;63997;52.112;5.420;2024-02-14T02:10:47;5.78;;;5.10;;
75417;SDS011;63997;52.112;5.420;2024-02-14T02:13:14;8.85;;;6.70;;
75417;SDS011;63997;52.112;5.420;2024-02-14T02:15:41;5.97;;;5.37;;
75417;SDS011;63997;52.112;5.420;2024-02-14T02:18:11;9.73;;;5.53;;
75417;SDS011;63997;52.112;5.420;2024-02-14T02:20:37;9.07;;;5.30;;
75417;SDS011;63997;52.112;5.420;2024-02-14T02:23:04;6.10;;;5.10;;
75417;SDS011;63997;52.112;5.420;2024-02-14T02:25:31;6.20;;;5.43;;
75417;SDS011;63997;52.112;5.420;2024-02-14T02:27:57;8.43;;;5.00;;
75417;SDS011;63997;52.112;5.420;2024-02-14T02:30:24;8.52;;;5.75;;
75417;SDS011;63997;52.112;5.420;2024-02-14T02:32:51;8.63;;;5.63;;
75417;SDS011;63997;52.112;5.420;2024-02-14T02:35:19;7.50;;;5.95;;
75417;SDS011;63997;52.112;5.420;2024-02-14T02:37:50;6.35;;;5.75;;
75417;SDS011;63997;52.112;5.420;2024-02-14T02:40:17;7.63;;;5.63;;
75417;SDS011;63997;52.112;5.420;2024-02-14T02:42:44;6.97;;;5.72;;
75417;SDS011;63997;52.112;5.420;2024-02-14T02:45:13;7.28;;;6.55;;
75417;SDS011;63997;52.112;5.420;2024-02-14T02:47:40;8.55;;;7.20;;
75417;SDS011;63997;52.112;5.420;2024-02-14T02:50:07;6.97;;;6.20;;
75417;SDS011;63997;52.112;5.420;2024-02-14T02:52:34;8.33;;;6.43;;
75417;SDS011;63997;52.112;5.420;2024-02-14T02:55:01;7.68;;;6.88;;
75417;SDS011;63997;52.112;5.420;2024-02-14T02:57:28;9.00;;;6.60;;
75417;SDS011;63997;52.112;5.420;2024-02-14T02:59:55;6.60;;;6.00;;
75417;SDS011;63997;52.112;5.420;2024-02-14T03:02:22;7.75;;;6.75;;
75417;SDS011;63997;52.112;5.420;2024-02-14T03:04:49;6.60;;;5.87;;
75417;SDS011;63997;52.112;5.420;2024-02-14T03:07:19;7.35;;;6.00;;
75417;SDS011;63997;52.112;5.420;2024-02-14T03:09:47;7.82;;;6.55;;
75417;SDS011;63997;52.112;5.420;2024-02-14T03:12:13;6.43;;;5.65;;
75417;SDS011;63997;52.112;5.420;2024-02-14T03:14:42;8.35;;;6.03;;
75417;SDS011;63997;52.112;5.420;2024-02-14T03:17:10;8.30;;;5.83;;
75417;SDS011;63997;52.112;5.420;2024-02-14T03:19:37;7.38;;;6.13;;
75417;SDS011;63997;52.112;5.420;2024-02-14T03:22:06;8.63;;;6.68;;
75417;SDS011;63997;52.112;5.420;2024-02-14T03:24:35;9.45;;;7.35;;
75417;SDS011;63997;52.112;5.420;2024-02-14T03:27:03;7.95;;;6.82;;
75417;SDS011;63997;52.112;5.420;2024-02-14T03:29:33;10.10;;;7.40;;
75417;SDS011;63997;52.112;5.420;2024-02-14T03:32:02;9.95;;;7.38;;
75417;SDS011;63997;52.112;5.420;2024-02-14T03:34:33;11.60;;;8.10;;
75417;SDS011;63997;52.112;5.420;2024-02-14T03:37:02;8.88;;;7.55;;
75417;SDS011;63997;52.112;5.420;2024-02-14T03:39:29;9.00;;;7.88;;
75417;SDS011;63997;52.112;5.420;2024-02-14T03:41:56;10.57;;;7.93;;
75417;SDS011;63997;52.112;5.420;2024-02-14T03:44:22;11.60;;;7.82;;
75417;SDS011;63997;52.112;5.420;2024-02-14T03:46:50;12.02;;;7.43;;
75417;SDS011;63997;52.112;5.420;2024-02-14T03:49:16;12.40;;;7.72;;
75417;SDS011;63997;52.112;5.420;2024-02-14T03:51:43;12.93;;;7.57;;
75417;SDS011;63997;52.112;5.420;2024-02-14T03:54:10;12.27;;;8.20;;
75417;SDS011;63997;52.112;5.420;2024-02-14T03:56:38;10.52;;;6.90;;
75417;SDS011;63997;52.112;5.420;2024-02-14T03:59:05;8.48;;;6.65;;
75417;SDS011;63997;52.112;5.420;2024-02-14T04:01:35;10.25;;;7.90;;
75417;SDS011;63997;52.112;5.420;2024-02-14T04:04:01;14.27;;;8.02;;
75417;SDS011;63997;52.112;5.420;2024-02-14T04:06:28;11.90;;;7.37;;
75417;SDS011;63997;52.112;5.420;2024-02-14T04:08:58;14.45;;;8.02;;
75417;SDS011;63997;52.112;5.420;2024-02-14T04:11:26;15.48;;;7.57;;
75417;SDS011;63997;52.112;5.420;2024-02-14T04:13:53;18.88;;;7.95;;
75417;SDS011;63997;52.112;5.420;2024-02-14T04:16:20;11.48;;;8.27;;
75417;SDS011;63997;52.112;5.420;2024-02-14T04:18:47;12.30;;;7.73;;
75417;SDS011;63997;52.112;5.420;2024-02-14T04:21:14;9.25;;;7.40;;
75417;SDS011;63997;52.112;5.420;2024-02-14T04:23:41;12.10;;;7.75;;
75417;SDS011;63997;52.112;5.420;2024-02-14T04:26:08;11.02;;;6.85;;
75417;SDS011;63997;52.112;5.420;2024-02-14T04:28:34;13.13;;;7.57;;
75417;SDS011;63997;52.112;5.420;2024-02-14T04:31:01;13.50;;;7.23;;
75417;SDS011;63997;52.112;5.420;2024-02-14T04:33:28;15.27;;;7.35;;
75417;SDS011;63997;52.112;5.420;2024-02-14T04:35:56;18.08;;;8.63;;
75417;SDS011;63997;52.112;5.420;2024-02-14T04:38:23;15.88;;;7.93;;
75417;SDS011;63997;52.112;5.420;2024-02-14T04:40:50;15.50;;;8.38;;
75417;SDS011;63997;52.112;5.420;2024-02-14T04:43:16;16.67;;;8.50;;
75417;SDS011;63997;52.112;5.420;2024-02-14T04:45:44;12.07;;;7.82;;
75417;SDS011;63997;52.112;5.420;2024-02-14T04:48:11;12.40;;;8.40;;
75417;SDS011;63997;52.112;5.420;2024-02-14T04:50:37;13.10;;;7.78;;
75417;SDS011;63997;52.112;5.420;2024-02-14T04:53:04;14.93;;;8.05;;
75417;SDS011;63997;52.112;5.420;2024-02-14T04:55:31;13.93;;;8.50;;
75417;SDS011;63997;52.112;5.420;2024-02-14T04:57:58;14.48;;;8.38;;
75417;SDS011;63997;52.112;5.420;2024-02-14T05:00:25;16.70;;;9.23;;
75417;SDS011;63997;52.112;5.420;2024-02-14T05:02:52;15.77;;;9.18;;
75417;SDS011;63997;52.112;5.420;2024-02-14T05:05:19;19.02;;;9.43;;
75417;SDS011;63997;52.112;5.420;2024-02-14T05:07:46;13.60;;;9.00;;
75417;SDS011;63997;52.112;5.420;2024-02-14T05:10:13;23.75;;;9.38;;
75417;SDS011;63997;52.112;5.420;2024-02-14T05:12:40;16.23;;;8.80;;
75417;SDS011;63997;52.112;5.420;2024-02-14T05:15:07;15.38;;;9.70;;
75417;SDS011;63997;52.112;5.420;2024-02-14T05:17:34;13.80;;;9.77;;
75417;SDS011;63997;52.112;5.420;2024-02-14T05:20:01;13.57;;;9.23;;
75417;SDS011;63997;52.112;5.420;2024-02-14T05:22:29;15.68;;;9.48;;
75417;SDS011;63997;52.112;5.420;2024-02-14T05:24:55;16.50;;;9.98;;
75417;SDS011;63997;52.112;5.420;2024-02-14T05:27:22;15.05;;;8.57;;
75417;SDS011;63997;52.112;5.420;2024-02-14T05:29:48;13.32;;;8.85;;
75417;SDS011;63997;52.112;5.420;2024-02-14T05:32:15;16.30;;;8.30;;
75417;SDS011;63997;52.112;5.420;2024-02-14T05:34:41;12.98;;;8.98;;
75417;SDS011;63997;52.112;5.420;2024-02-14T05:37:08;12.85;;;9.07;;
75417;SDS011;63997;52.112;5.420;2024-02-14T05:39:34;12.23;;;8.77;;
75417;SDS011;63997;52.112;5.420;2024-02-14T05:42:01;15.43;;;8.70;;
75417;SDS011;63997;52.112;5.420;2024-02-14T05:44:29;15.67;;;8.33;;
75417;SDS011;63997;52.112;5.420;2024-02-14T05:46:56;12.95;;;9.27;;
75417;SDS011;63997;52.112;5.420;2024-02-14T05:49:23;12.10;;;8.13;;
75417;SDS011;63997;52.112;5.420;2024-02-14T05:51:51;11.55;;;8.00;;
75417;SDS011;63997;52.112;5.420;2024-02-14T05:54:19;14.70;;;8.15;;
75417;SDS011;63997;52.112;5.420;2024-02-14T05:56:46;12.97;;;8.00;;
75417;SDS011;63997;52.112;5.420;2024-02-14T05:59:13;11.35;;;7.72;;
75417;SDS011;63997;52.112;5.420;2024-02-14T06:01:40;12.77;;;8.43;;
75417;SDS011;63997;52.112;5.420;2024-02-14T06:04:06;12.43;;;7.60;;
75417;SDS011;63997;52.112;5.420;2024-02-14T06:06:33;12.60;;;8.18;;
75417;SDS011;63997;52.112;5.420;2024-02-14T06:09:00;13.17;;;7.73;;
75417;SDS011;63997;52.112;5.420;2024-02-14T06:11:26;11.07;;;7.28;;
75417;SDS011;63997;52.112;5.420;2024-02-14T06:13:53;8.77;;;7.88;;
75417;SDS011;63997;52.112;5.420;2024-02-14T06:16:22;9.02;;;7.70;;
75417;SDS011;63997;52.112;5.420;2024-02-14T06:18:49;13.68;;;7.53;;
75417;SDS011;63997;52.112;5.420;2024-02-14T06:21:15;14.93;;;7.60;;
75417;SDS011;63997;52.112;5.420;2024-02-14T06:23:42;9.68;;;6.75;;
75417;SDS011;63997;52.112;5.420;2024-02-14T06:26:12;11.05;;;7.30;;
75417;SDS011;63997;52.112;5.420;2024-02-14T06:28:38;9.75;;;7.28;;
75417;SDS011;63997;52.112;5.420;2024-02-14T06:31:05;8.88;;;7.07;;
75417;SDS011;63997;52.112;5.420;2024-02-14T06:33:31;7.07;;;6.00;;
75417;SDS011;63997;52.112;5.420;2024-02-14T06:35:58;7.18;;;6.28;;
75417;SDS011;63997;52.112;5.420;2024-02-14T06:38:25;8.27;;;5.85;;
75417;SDS011;63997;52.112;5.420;2024-02-14T06:40:51;10.18;;;6.63;;
75417;SDS011;63997;52.112;5.420;2024-02-14T06:43:18;13.23;;;6.63;;
75417;SDS011;63997;52.112;5.420;2024-02-14T06:45:45;8.13;;;6.93;;
75417;SDS011;63997;52.112;5.420;2024-02-14T06:48:12;10.63;;;7.45;;
75417;SDS011;63997;52.112;5.420;2024-02-14T06:50:39;10.23;;;7.40;;
75417;SDS011;63997;52.112;5.420;2024-02-14T06:53:06;9.60;;;7.63;;
75417;SDS011;63997;52.112;5.420;2024-02-14T06:55:32;12.02;;;7.60;;
75417;SDS011;63997;52.112;5.420;2024-02-14T06:57:59;11.40;;;7.80;;
75417;SDS011;63997;52.112;5.420;2024-02-14T07:00:26;14.20;;;8.43;;
75417;SDS011;63997;52.112;5.420;2024-02-14T07:02:55;13.57;;;8.13;;
75417;SDS011;63997;52.112;5.420;2024-02-14T07:05:21;12.90;;;8.43;;
75417;SDS011;63997;52.112;5.420;2024-02-14T07:07:48;12.75;;;9.38;;
75417;SDS011;63997;52.112;5.420;2024-02-14T07:10:14;13.03;;;9.17;;
75417;SDS011;63997;52.112;5.420;2024-02-14T07:12:41;14.10;;;8.88;;
75417;SDS011;63997;52.112;5.420;2024-02-14T07:15:08;13.27;;;9.05;;
75417;SDS011;63997;52.112;5.420;2024-02-14T07:17:36;12.27;;;9.35;;
75417;SDS011;63997;52.112;5.420;2024-02-14T07:20:05;15.60;;;10.57;;
75417;SDS011;63997;52.112;5.420;2024-02-14T07:22:32;19.13;;;9.87;;
75417;SDS011;63997;52.112;5.420;2024-02-14T07:24:59;14.55;;;9.98;;
75417;SDS011;63997;52.112;5.420;2024-02-14T07:27:26;20.05;;;11.40;;
75417;SDS011;63997;52.112;5.420;2024-02-14T07:29:54;15.98;;;10.38;;
75417;SDS011;63997;52.112;5.420;2024-02-14T07:32:20;17.23;;;10.40;;
75417;SDS011;63997;52.112;5.420;2024-02-14T07:34:48;16.97;;;9.93;;
75417;SDS011;63997;52.112;5.420;2024-02-14T07:37:16;14.27;;;10.20;;
75417;SDS011;63997;52.112;5.420;2024-02-14T07:39:46;16.35;;;10.30;;
75417;SDS011;63997;52.112;5.420;2024-02-14T07:42:13;14.38;;;10.25;;
75417;SDS011;63997;52.112;5.420;2024-02-14T07:44:40;14.82;;;9.43;;
75417;SDS011;63997;52.112;5.420;2024-02-14T07:47:07;16.40;;;10.37;;
75417;SDS011;63997;52.112;5.420;2024-02-14T07:49:33;15.52;;;10.27;;
75417;SDS011;63997;52.112;5.420;2024-02-14T07:52:00;15.10;;;10.60;;
75417;SDS011;63997;52.112;5.420;2024-02-14T07:54:27;19.15;;;11.45;;
75417;SDS011;63997;52.112;5.420;2024-02-14T07:56:55;16.02;;;9.85;;
75417;SDS011;63997;52.112;5.420;2024-02-14T07:59:22;15.07;;;10.57;;
75417;SDS011;63997;52.112;5.420;2024-02-14T08:01:49;17.70;;;10.52;;
75417;SDS011;63997;52.112;5.420;2024-02-14T08:04:15;18.65;;;10.95;;
75417;SDS011;63997;52.112;5.420;2024-02-14T08:06:46;16.70;;;10.90;;
75417;SDS011;63997;52.112;5.420;2024-02-14T08:09:15;17.17;;;10.02;;
75417;SDS011;63997;52.112;5.420;2024-02-14T08:11:41;12.90;;;9.10;;
75417;SDS011;63997;52.112;5.420;2024-02-14T08:14:08;13.63;;;9.38;;
75417;SDS011;63997;52.112;5.420;2024-02-14T08:16:35;16.02;;;9.55;;
75417;SDS011;63997;52.112;5.420;2024-02-14T08:19:02;14.60;;;9.48;;
75417;SDS011;63997;52.112;5.420;2024-02-14T08:21:30;12.90;;;9.70;;
75417;SDS011;63997;52.112;5.420;2024-02-14T08:23:58;15.40;;;10.13;;
75417;SDS011;63997;52.112;5.420;2024-02-14T08:26:27;17.25;;;10.40;;
75417;SDS011;63997;52.112;5.420;2024-02-14T08:28:55;16.25;;;11.20;;
75417;SDS011;63997;52.112;5.420;2024-02-14T08:31:21;14.50;;;9.77;;
75417;SDS011;63997;52.112;5.420;2024-02-14T08:33:48;17.45;;;11.18;;
75417;SDS011;63997;52.112;5.420;2024-02-14T08:36:15;19.10;;;11.50;;
75417;SDS011;63997;52.112;5.420;2024-02-14T08:38:43;15.68;;;10.95;;
75417;SDS011;63997;52.112;5.420;2024-02-14T08:41:10;16.63;;;10.93;;
75417;SDS011;63997;52.112;5.420;2024-02-14T08:43:37;17.42;;;10.65;;
75417;SDS011;63997;52.112;5.420;2024-02-14T08:46:03;16.10;;;11.15;;
75417;SDS011;63997;52.112;5.420;2024-02-14T08:48:35;15.60;;;10.43;;
75417;SDS011;63997;52.112;5.420;2024-02-14T08:51:03;14.90;;;10.07;;
75417;SDS011;63997;52.112;5.420;2024-02-14T08:53:30;17.17;;;10.85;;
75417;SDS011;63997;52.112;5.420;2024-02-14T08:55:56;12.68;;;9.48;;
75417;SDS011;63997;52.112;5.420;2024-02-14T08:58:23;13.15;;;10.10;;
75417;SDS011;63997;52.112;5.420;2024-02-14T09:00:50;9.77;;;7.93;;
75417;SDS011;63997;52.112;5.420;2024-02-14T09:03:34;11.00;;;9.00;;
75417;SDS011;63997;52.112;5.420;2024-02-14T09:06:01;13.15;;;9.00;;
75417;SDS011;63997;52.112;5.420;2024-02-14T09:08:30;15.30;;;8.93;;
75417;SDS011;63997;52.112;5.420;2024-02-14T09:10:57;15.55;;;10.20;;
75417;SDS011;63997;52.112;5.420;2024-02-14T09:13:25;13.80;;;9.87;;
75417;SDS011;63997;52.112;5.420;2024-02-14T09:15:53;15.68;;;10.23;;
75417;SDS011;63997;52.112;5.420;2024-02-14T09:18:20;14.88;;;9.93;;
75417;SDS011;63997;52.112;5.420;2024-02-14T09:20:47;14.13;;;9.35;;
75417;SDS011;63997;52.112;5.420;2024-02-14T09:23:16;13.75;;;9.35;;
75417;SDS011;63997;52.112;5.420;2024-02-14T09:25:49;12.03;;;9.17;;
75417;SDS011;63997;52.112;5.420;2024-02-14T09:28:15;15.73;;;9.52;;
75417;SDS011;63997;52.112;5.420;2024-02-14T09:30:42;13.05;;;9.20;;
75417;SDS011;63997;52.112;5.420;2024-02-14T09:33:09;14.07;;;9.60;;
75417;SDS011;63997;52.112;5.420;2024-02-14T09:35:36;13.05;;;10.05;;
75417;SDS011;63997;52.112;5.420;2024-02-14T09:38:05;14.80;;;10.60;;
75417;SDS011;63997;52.112;5.420;2024-02-14T09:40:31;14.27;;;9.55;;
75417;SDS011;63997;52.112;5.420;2024-02-14T09:42:59;13.43;;;8.93;;
75417;SDS011;63997;52.112;5.420;2024-02-14T09:45:30;12.45;;;8.70;;
75417;SDS011;63997;52.112;5.420;2024-02-14T09:48:00;11.60;;;9.25;;
75417;SDS011;63997;52.112;5.420;2024-02-14T09:50:28;12.07;;;9.33;;
75417;SDS011;63997;52.112;5.420;2024-02-14T09:52:57;16.25;;;10.23;;
75417;SDS011;63997;52.112;5.420;2024-02-14T09:55:24;16.52;;;10.23;;
75417;SDS011;63997;52.112;5.420;2024-02-14T09:57:52;16.83;;;11.05;;
75417;SDS011;63997;52.112;5.420;2024-02-14T10:00:21;18.08;;;11.75;;
75417;SDS011;63997;52.112;5.420;2024-02-14T10:02:54;17.67;;;11.53;;
75417;SDS011;63997;52.112;5.420;2024-02-14T10:05:21;20.23;;;11.60;;
75417;SDS011;63997;52.112;5.420;2024-02-14T10:07:48;19.55;;;12.30;;
75417;SDS011;63997;52.112;5.420;2024-02-14T10:10:14;18.70;;;12.32;;
75417;SDS011;63997;52.112;5.420;2024-02-14T10:12:41;20.50;;;11.23;;
75417;SDS011;63997;52.112;5.420;2024-02-14T10:15:08;17.00;;;11.03;;
75417;SDS011;63997;52.112;5.420;2024-02-14T10:17:35;21.25;;;11.55;;
75417;SDS011;63997;52.112;5.420;2024-02-14T10:20:02;14.05;;;10.68;;
75417;SDS011;63997;52.112;5.420;2024-02-14T10:22:32;17.15;;;11.15;;
75417;SDS011;63997;52.112;5.420;2024-02-14T10:25:01;17.92;;;10.00;;
75417;SDS011;63997;52.112;5.420;2024-02-14T10:27:28;16.40;;;10.07;;
75417;SDS011;63997;52.112;5.420;2024-02-14T10:29:57;12.18;;;10.05;;
75417;SDS011;63997;52.112;5.420;2024-02-14T10:32:24;16.02;;;10.52;;
75417;SDS011;63997;52.112;5.420;2024-02-14T10:34:51;14.02;;;9.45;;
75417;SDS011;63997;52.112;5.420;2024-02-14T10:37:18;14.48;;;9.05;;
75417;SDS011;63997;52.112;5.420;2024-02-14T10:39:47;12.03;;;9.07;;
75417;SDS011;63997;52.112;5.420;2024-02-14T10:42:18;15.02;;;9.95;;
75417;SDS011;63997;52.112;5.420;2024-02-14T10:44:45;14.63;;;10.27;;
75417;SDS011;63997;52.112;5.420;2024-02-14T10:47:19;13.50;;;9.75;;
75417;SDS011;63997;52.112;5.420;2024-02-14T10:49:47;15.23;;;9.75;;
75417;SDS011;63997;52.112;5.420;2024-02-14T10:52:16;17.43;;;9.43;;
75417;SDS011;63997;52.112;5.420;2024-02-14T10:54:45;14.27;;;8.98;;
75417;SDS011;63997;52.112;5.420;2024-02-14T10:57:24;11.18;;;8.40;;
75417;SDS011;63997;52.112;5.420;2024-02-14T10:59:51;11.60;;;8.63;;
75417;SDS011;63997;52.112;5.420;2024-02-14T11:02:19;11.90;;;8.98;;
75417;SDS011;63997;52.112;5.420;2024-02-14T11:04:48;12.60;;;8.63;;
75417;SDS011;63997;52.112;5.420;2024-02-14T11:07:20;10.85;;;8.77;;
75417;SDS011;63997;52.112;5.420;2024-02-14T11:09:59;13.40;;;8.57;;
75417;SDS011;63997;52.112;5.420;2024-02-14T11:12:36;8.70;;;7.82;;
75417;SDS011;63997;52.112;5.420;2024-02-14T11:15:09;13.07;;;9.02;;
75417;SDS011;63997;52.112;5.420;2024-02-14T11:17:38;10.60;;;7.47;;
75417;SDS011;63997;52.112;5.420;2024-02-14T11:22:53;9.52;;;7.47;;
75417;SDS011;63997;52.112;5.420;2024-02-14T11:25:30;10.23;;;7.80;;
75417;SDS011;63997;52.112;5.420;2024-02-14T11:27:58;10.15;;;6.93;;
75417;SDS011;63997;52.112;5.420;2024-02-14T11:30:28;10.43;;;7.50;;
75417;SDS011;63997;52.112;5.420;2024-02-14T11:35:48;8.27;;;7.47;;
75417;SDS011;63997;52.112;5.420;2024-02-14T11:38:18;9.98;;;7.28;;
75417;SDS011;63997;52.112;5.420;2024-02-14T11:40:49;11.60;;;7.40;;
75417;SDS011;63997;52.112;5.420;2024-02-14T11:43:19;10.80;;;7.07;;
75417;SDS011;63997;52.112;5.420;2024-02-14T11:45:46;11.95;;;7.38;;
75417;SDS011;63997;52.112;5.420;2024-02-14T11:48:16;11.02;;;7.35;;
75417;SDS011;63997;52.112;5.420;2024-02-14T11:50:45;10.52;;;7.88;;
75417;SDS011;63997;52.112;5.420;2024-02-14T11:53:12;10.32;;;8.38;;
75417;SDS011;63997;52.112;5.420;2024-02-14T11:55:41;10.83;;;7.87;;
75417;SDS011;63997;52.112;5.420;2024-02-14T11:58:09;13.00;;;8.05;;
75417;SDS011;63997;52.112;5.420;2024-02-14T12:00:43;9.32;;;7.43;;
75417;SDS011;63997;52.112;5.420;2024-02-14T12:03:18;8.27;;;7.40;;
75417;SDS011;63997;52.112;5.420;2024-02-14T12:05:48;9.93;;;7.15;;
75417;SDS011;63997;52.112;5.420;2024-02-14T12:08:17;12.20;;;8.10;;
75417;SDS011;63997;52.112;5.420;2024-02-14T12:10:45;11.50;;;7.90;;
75417;SDS011;63997;52.112;5.420;2024-02-14T12:13:14;9.40;;;6.95;;
75417;SDS011;63997;52.112;5.420;2024-02-14T12:15:46;9.27;;;7.25;;
75417;SDS011;63997;52.112;5.420;2024-02-14T12:18:15;9.60;;;6.32;;
75417;SDS011;63997;52.112;5.420;2024-02-14T12:20:45;11.77;;;7.43;;
75417;SDS011;63997;52.112;5.420;2024-02-14T12:23:15;9.93;;;7.18;;
75417;SDS011;63997;52.112;5.420;2024-02-14T12:25:47;10.50;;;6.75;;
75417;SDS011;63997;52.112;5.420;2024-02-14T12:28:15;9.68;;;6.63;;
75417;SDS011;63997;52.112;5.420;2024-02-14T12:30:50;9.38;;;5.95;;
75417;SDS011;63997;52.112;5.420;2024-02-14T12:33:23;10.13;;;6.67;;
75417;SDS011;63997;52.112;5.420;2024-02-14T12:35:51;8.32;;;6.22;;
75417;SDS011;63997;52.112;5.420;2024-02-14T12:38:24;7.68;;;5.85;;
75417;SDS011;63997;52.112;5.420;2024-02-14T12:40:51;6.57;;;4.95;;
75417;SDS011;63997;52.112;5.420;2024-02-14T12:43:20;6.68;;;5.60;;
75417;SDS011;63997;52.112;5.420;2024-02-14T12:45:48;7.10;;;4.67;;
75417;SDS011;63997;52.112;5.420;2024-02-14T12:48:21;6.25;;;5.00;;
75417;SDS011;63997;52.112;5.420;2024-02-14T12:50:50;5.72;;;4.82;;
75417;SDS011;63997;52.112;5.420;2024-02-14T12:53:18;6.60;;;4.47;;
75417;SDS011;63997;52.112;5.420;2024-02-14T12:55:48;6.53;;;4.85;;
75417;SDS011;63997;52.112;5.420;2024-02-14T12:58:14;5.70;;;4.77;;
75417;SDS011;63997;52.112;5.420;2024-02-14T13:00:42;7.53;;;4.72;;
75417;SDS011;63997;52.112;5.420;2024-02-14T13:03:10;6.00;;;4.13;;
75417;SDS011;63997;52.112;5.420;2024-02-14T13:05:38;3.80;;;3.40;;
75417;SDS011;63997;52.112;5.420;2024-02-14T13:08:05;5.07;;;3.35;;
75417;SDS011;63997;52.112;5.420;2024-02-14T13:10:32;3.57;;;3.17;;
75417;SDS011;63997;52.112;5.420;2024-02-14T13:13:00;4.22;;;3.40;;
75417;SDS011;63997;52.112;5.420;2024-02-14T13:15:27;5.95;;;3.78;;
75417;SDS011;63997;52.112;5.420;2024-02-14T13:17:54;4.95;;;3.22;;
75417;SDS011;63997;52.112;5.420;2024-02-14T13:20:22;4.10;;;3.70;;
75417;SDS011;63997;52.112;5.420;2024-02-14T13:22:49;4.40;;;3.53;;
75417;SDS011;63997;52.112;5.420;2024-02-14T13:25:16;3.40;;;3.10;;
75417;SDS011;63997;52.112;5.420;2024-02-14T13:27:43;6.50;;;3.40;;
75417;SDS011;63997;52.112;5.420;2024-02-14T13:30:10;5.07;;;3.80;;
75417;SDS011;63997;52.112;5.420;2024-02-14T13:32:37;3.22;;;2.85;;
75417;SDS011;63997;52.112;5.420;2024-02-14T13:35:04;4.60;;;2.93;;
75417;SDS011;63997;52.112;5.420;2024-02-14T13:37:34;3.00;;;2.70;;
75417;SDS011;63997;52.112;5.420;2024-02-14T13:40:03;4.00;;;3.17;;
75417;SDS011;63997;52.112;5.420;2024-02-14T13:42:35;3.05;;;2.75;;
75417;SDS011;63997;52.112;5.420;2024-02-14T13:45:06;3.38;;;2.80;;
75417;SDS011;63997;52.112;5.420;2024-02-14T13:47:38;4.90;;;2.90;;
75417;SDS011;63997;52.112;5.420;2024-02-14T13:50:10;4.13;;;3.50;;
75417;SDS011;63997;52.112;5.420;2024-02-14T13:52:37;3.38;;;2.90;;
75417;SDS011;63997;52.112;5.420;2024-02-14T13:55:04;3.95;;;2.90;;
75417;SDS011;63997;52.112;5.420;2024-02-14T13:57:37;4.15;;;3.75;;
75417;SDS011;63997;52.112;5.420;2024-02-14T14:00:05;4.00;;;3.60;;
75417;SDS011;63997;52.112;5.420;2024-02-14T14:02:38;3.85;;;3.45;;
75417;SDS011;63997;52.112;5.420;2024-02-14T14:05:10;4.43;;;3.90;;
75417;SDS011;63997;52.112;5.420;2024-02-14T14:07:40;5.20;;;4.07;;
75417;SDS011;63997;52.112;5.420;2024-02-14T14:10:23;4.72;;;4.25;;
75417;SDS011;63997;52.112;5.420;2024-02-14T14:12:52;5.70;;;5.00;;
75417;SDS011;63997;52.112;5.420;2024-02-14T14:15:18;6.03;;;5.10;;
75417;SDS011;63997;52.112;5.420;2024-02-14T14:17:45;8.20;;;5.70;;
75417;SDS011;63997;52.112;5.420;2024-02-14T14:20:12;5.88;;;5.28;;
75417;SDS011;63997;52.112;5.420;2024-02-14T14:22:39;5.80;;;5.18;;
75417;SDS011;63997;52.112;5.420;2024-02-14T14:25:06;6.77;;;5.60;;
75417;SDS011;63997;52.112;5.420;2024-02-14T14:27:34;5.78;;;5.18;;
75417;SDS011;63997;52.112;5.420;2024-02-14T14:30:01;7.50;;;5.72;;
75417;SDS011;63997;52.112;5.420;2024-02-14T14:32:27;9.85;;;6.18;;
75417;SDS011;63997;52.112;5.420;2024-02-14T14:34:54;7.45;;;5.82;;
75417;SDS011;63997;52.112;5.420;2024-02-14T14:37:21;7.03;;;6.30;;
75417;SDS011;63997;52.112;5.420;2024-02-14T14:39:49;6.93;;;6.20;;
75417;SDS011;63997;52.112;5.420;2024-02-14T14:42:16;7.20;;;6.50;;
75417;SDS011;63997;52.112;5.420;2024-02-14T14:44:44;6.65;;;5.28;;
75417;SDS011;63997;52.112;5.420;2024-02-14T14:47:10;6.40;;;4.75;;